Time;durP1;ratioP1;P1;durP2;ratioP2;P2;SDS_P1;SDS_P2;PMS_P1;PMS_P2;Temp;Humidity;BMP_temperature;BMP_pressure;BME280_temperature;BME280_humidity;BME280_pressure;Samples;Min_cycle;Max_cycle;Signal;HPM_P1;HPM_P2
2023/06/08 00:02:07;;;;;;;5.40;4.90;;;20.50;66.90;;;;;;4994564;28;20041;-60
2023/06/08 00:04:33;;;;;;;8.27;5.43;;;20.50;66.90;;;;;;4994524;28;20037;-64
2023/06/08 00:07:03;;;;;;;7.45;4.93;;;20.50;67.20;;;;;;4995026;28;20034;-66
2023/06/08 00:09:29;;;;;;;5.53;4.55;;;20.50;67.20;;;;;;4989545;28;20046;-66
2023/06/08 00:11:55;;;;;;;5.40;4.90;;;20.50;67.20;;;;;;4997350;28;20026;-63
2023/06/08 00:14:21;;;;;;;5.60;5.10;;;20.50;67.00;;;;;;4999143;28;20038;-66
2023/06/08 00:16:48;;;;;;;5.45;4.70;;;20.50;67.00;;;;;;4998097;28;20030;-65
2023/06/08 00:19:14;;;;;;;5.30;4.80;;;20.50;67.00;;;;;;4998365;28;20042;-65
2023/06/08 00:21:42;;;;;;;5.90;5.30;;;20.50;67.20;;;;;;4996933;28;20030;-63
2023/06/08 00:24:09;;;;;;;5.30;4.80;;;20.50;67.10;;;;;;4996723;28;20085;-66
2023/06/08 00:26:34;;;;;;;5.80;4.47;;;20.50;67.00;;;;;;4995301;28;20034;-66
2023/06/08 00:29:00;;;;;;;6.28;4.78;;;20.50;67.10;;;;;;4998242;28;20140;-66
2023/06/08 00:31:25;;;;;;;5.22;4.70;;;20.50;67.00;;;;;;4989778;28;20118;-64
2023/06/08 00:33:51;;;;;;;5.20;4.70;;;20.50;67.20;;;;;;4998420;28;20026;-66
2023/06/08 00:36:16;;;;;;;5.90;5.30;;;20.50;67.20;;;;;;5001946;28;20397;-66
2023/06/08 00:38:42;;;;;;;5.60;5.10;;;20.50;67.30;;;;;;4995602;28;20077;-62
2023/06/08 00:41:07;;;;;;;6.57;4.88;;;20.50;67.00;;;;;;5004481;28;20445;-66
2023/06/08 00:43:33;;;;;;;5.45;4.95;;;20.50;67.00;;;;;;5002908;28;20107;-64
2023/06/08 00:45:59;;;;;;;5.30;4.57;;;20.50;67.20;;;;;;5000897;28;20125;-65
2023/06/08 00:48:25;;;;;;;5.18;4.55;;;20.40;67.30;;;;;;5000096;28;20030;-66
2023/06/08 00:50:51;;;;;;;6.05;4.55;;;20.50;67.00;;;;;;5001159;28;20484;-66
2023/06/08 00:53:18;;;;;;;5.40;4.75;;;20.50;67.10;;;;;;5000485;28;20526;-65
2023/06/08 00:55:44;;;;;;;5.28;4.50;;;20.50;67.10;;;;;;4998912;28;20041;-65
2023/06/08 00:58:13;;;;;;;5.03;4.57;;;20.50;67.40;;;;;;4995042;28;20037;-65
2023/06/08 01:00:40;;;;;;;6.15;4.80;;;20.50;67.10;;;;;;4992220;28;20026;-62
2023/06/08 01:03:06;;;;;;;4.97;4.53;;;20.50;67.20;;;;;;5001793;28;20033;-64
2023/06/08 01:05:32;;;;;;;5.57;5.07;;;20.50;67.00;;;;;;5003571;28;20407;-66
2023/06/08 01:08:10;;;;;;;4.88;4.38;;;20.50;67.30;;;;;;4990417;28;20022;-64
2023/06/08 01:10:43;;;;;;;5.15;4.65;;;20.50;67.30;;;;;;5002767;28;20034;-66
2023/06/08 01:13:36;;;;;;;4.95;4.47;;;20.50;67.20;;;;;;5001536;28;20112;-63
2023/06/08 01:16:04;;;;;;;4.35;3.95;;;20.50;67.20;;;;;;4998889;28;20527;-65
2023/06/08 01:18:33;;;;;;;5.68;4.53;;;20.50;67.00;;;;;;5001356;28;20042;-65
2023/06/08 01:21:11;;;;;;;6.07;4.93;;;20.50;67.00;;;;;;4999192;28;20124;-65
2023/06/08 01:24:12;;;;;;;8.07;5.00;;;20.50;67.00;;;;;;4999602;28;20069;-67
2023/06/08 01:26:43;;;;;;;5.20;4.20;;;20.50;67.00;;;;;;4997362;28;20034;-66
2023/06/08 01:29:10;;;;;;;4.97;4.53;;;20.50;67.10;;;;;;4995997;28;20026;-66
2023/06/08 01:31:39;;;;;;;5.53;3.80;;;20.50;67.00;;;;;;4998617;28;20034;-64
2023/06/08 01:34:05;;;;;;;4.68;4.18;;;20.50;67.30;;;;;;4999539;28;20374;-66
2023/06/08 01:36:55;;;;;;;4.95;4.45;;;20.50;67.20;;;;;;4998200;28;20442;-66
2023/06/08 01:39:50;;;;;;;5.60;5.10;;;20.50;67.30;;;;;;4998489;28;20344;-66
2023/06/08 01:42:18;;;;;;;5.03;4.45;;;20.50;67.10;;;;;;4980210;28;20029;-66
2023/06/08 01:44:49;;;;;;;5.00;4.50;;;20.50;67.20;;;;;;4996872;28;20018;-66
2023/06/08 01:47:16;;;;;;;5.10;4.57;;;20.50;67.00;;;;;;5000382;28;20402;-65
2023/06/08 01:49:42;;;;;;;4.65;4.25;;;20.50;67.20;;;;;;5000797;28;20343;-63
2023/06/08 01:52:09;;;;;;;4.65;4.22;;;20.50;67.30;;;;;;4996497;28;20034;-65
2023/06/08 01:54:34;;;;;;;5.47;4.32;;;20.50;67.30;;;;;;4999092;28;20080;-65
2023/06/08 01:57:00;;;;;;;4.50;4.10;;;20.50;67.10;;;;;;4995336;28;20022;-65
2023/06/08 01:59:25;;;;;;;4.97;4.45;;;20.50;67.40;;;;;;4999330;28;20528;-62
2023/06/08 02:01:51;;;;;;;5.50;5.00;;;20.50;67.00;;;;;;4996130;28;20405;-64
2023/06/08 02:04:16;;;;;;;5.03;4.57;;;20.50;67.10;;;;;;4995608;28;20034;-65
2023/06/08 02:06:42;;;;;;;4.65;4.25;;;20.50;67.10;;;;;;4995401;28;20488;-63
2023/06/08 02:09:08;;;;;;;4.35;3.95;;;20.50;67.40;;;;;;5002413;28;20026;-65
2023/06/08 02:11:33;;;;;;;4.88;4.38;;;20.50;67.30;;;;;;4999885;28;20034;-66
2023/06/08 02:13:58;;;;;;;4.97;4.47;;;20.50;67.10;;;;;;4997015;28;20169;-65
2023/06/08 02:16:24;;;;;;;4.55;4.15;;;20.50;67.10;;;;;;5000087;28;20030;-66
2023/06/08 02:18:50;;;;;;;4.50;4.10;;;20.50;67.00;;;;;;4999884;28;20101;-66
2023/06/08 02:21:15;;;;;;;4.75;4.35;;;20.50;67.00;;;;;;4998520;28;20022;-66
2023/06/08 02:23:41;;;;;;;5.40;4.90;;;20.50;67.40;;;;;;4998409;28;20033;-64
2023/06/08 02:26:07;;;;;;;5.15;4.65;;;20.50;67.40;;;;;;4998713;28;20037;-66
2023/06/08 02:28:34;;;;;;;4.82;4.43;;;20.40;67.10;;;;;;4993756;28;20031;-64
2023/06/08 02:31:00;;;;;;;4.75;4.35;;;20.50;67.20;;;;;;4995110;28;20044;-65
2023/06/08 02:33:25;;;;;;;4.55;4.15;;;20.50;67.10;;;;;;4995379;28;20384;-65
2023/06/08 02:35:51;;;;;;;4.60;4.20;;;20.50;67.40;;;;;;4999374;28;20034;-65
2023/06/08 02:38:17;;;;;;;4.60;4.20;;;20.50;67.20;;;;;;5002395;28;20045;-65
2023/06/08 02:40:42;;;;;;;4.93;4.43;;;20.50;67.10;;;;;;4998505;28;20054;-65
2023/06/08 02:43:08;;;;;;;5.10;4.30;;;20.50;67.10;;;;;;4997563;28;20562;-65
2023/06/08 02:45:34;;;;;;;4.93;4.45;;;20.50;67.20;;;;;;4997705;28;20576;-65
2023/06/08 02:48:00;;;;;;;4.38;3.97;;;20.50;67.10;;;;;;4998424;28;20045;-65
2023/06/08 02:50:26;;;;;;;4.10;3.70;;;20.50;67.30;;;;;;4998614;28;20050;-65
2023/06/08 02:52:51;;;;;;;4.40;4.00;;;20.40;67.20;;;;;;4996520;28;20034;-65
2023/06/08 02:55:17;;;;;;;4.70;4.30;;;20.50;67.00;;;;;;4999110;28;20084;-65
2023/06/08 02:57:42;;;;;;;4.72;4.22;;;20.50;67.00;;;;;;4994262;28;20089;-64
2023/06/08 03:00:12;;;;;;;4.28;3.88;;;20.50;67.20;;;;;;4999475;28;20412;-66
2023/06/08 03:02:38;;;;;;;4.57;4.18;;;20.50;67.10;;;;;;4990545;28;20509;-65
2023/06/08 03:05:04;;;;;;;4.07;3.75;;;20.50;67.10;;;;;;4999243;28;20026;-65
2023/06/08 03:07:31;;;;;;;4.13;3.83;;;20.50;67.20;;;;;;4997727;28;20081;-65
2023/06/08 03:09:56;;;;;;;4.65;4.25;;;20.50;67.30;;;;;;4998642;28;20031;-65
2023/06/08 03:12:22;;;;;;;4.30;3.95;;;20.50;67.30;;;;;;4995996;28;20037;-66
2023/06/08 03:14:48;;;;;;;4.78;4.30;;;20.40;67.00;;;;;;4996532;28;20516;-63
2023/06/08 03:17:17;;;;;;;4.60;4.13;;;20.40;67.00;;;;;;4998411;28;20022;-66
2023/06/08 03:19:43;;;;;;;5.18;4.78;;;20.50;67.30;;;;;;4997298;28;20030;-65
2023/06/08 03:22:09;;;;;;;5.20;4.10;;;20.50;67.10;;;;;;4997152;28;20042;-66
2023/06/08 03:24:34;;;;;;;4.93;4.53;;;20.50;67.10;;;;;;4993387;28;20038;-65
2023/06/08 03:27:03;;;;;;;4.32;3.80;;;20.40;67.00;;;;;;4996124;28;20041;-65
2023/06/08 03:29:30;;;;;;;4.15;3.75;;;20.50;67.10;;;;;;4993638;28;20117;-63
2023/06/08 03:31:56;;;;;;;4.85;4.43;;;20.40;67.20;;;;;;4999517;28;20030;-66
2023/06/08 03:34:25;;;;;;;4.25;3.95;;;20.50;67.20;;;;;;4996548;28;20029;-65
2023/06/08 03:36:51;;;;;;;4.80;4.38;;;20.50;67.40;;;;;;4998451;28;20084;-65
2023/06/08 03:39:17;;;;;;;5.10;4.20;;;20.40;67.20;;;;;;4996696;28;20033;-66
2023/06/08 03:41:43;;;;;;;3.88;3.47;;;20.40;67.10;;;;;;4995868;28;20044;-66
2023/06/08 03:44:08;;;;;;;4.70;4.30;;;20.40;67.20;;;;;;4998815;28;20033;-65
2023/06/08 03:46:33;;;;;;;4.07;3.67;;;20.40;67.20;;;;;;4998144;28;20125;-64
2023/06/08 03:48:59;;;;;;;4.55;4.15;;;20.40;67.10;;;;;;4999087;28;20026;-64
2023/06/08 03:51:25;;;;;;;4.55;4.15;;;20.40;67.20;;;;;;4994230;28;20496;-65
2023/06/08 03:53:51;;;;;;;4.20;3.80;;;20.40;67.20;;;;;;4999386;28;20034;-65
2023/06/08 03:56:17;;;;;;;4.30;3.90;;;20.40;67.20;;;;;;4998629;28;20300;-65
2023/06/08 03:58:42;;;;;;;4.18;3.78;;;20.40;67.10;;;;;;4990088;28;20564;-65
2023/06/08 04:01:11;;;;;;;5.03;4.57;;;20.40;67.20;;;;;;5000661;28;20713;-64
2023/06/08 04:03:38;;;;;;;5.63;4.05;;;20.40;67.10;;;;;;4985757;28;20437;-65
2023/06/08 04:06:08;;;;;;;4.57;4.18;;;20.40;67.10;;;;;;5000756;28;20033;-65
2023/06/08 04:08:40;;;;;;;3.67;3.38;;;20.40;67.20;;;;;;4996829;28;20441;-64
2023/06/08 04:11:08;;;;;;;4.22;3.83;;;20.40;67.20;;;;;;4997526;28;20041;-64
2023/06/08 04:13:37;;;;;;;4.30;3.95;;;20.40;67.20;;;;;;4998388;28;20030;-65
2023/06/08 04:16:08;;;;;;;4.05;3.75;;;20.50;67.30;;;;;;4996935;28;20648;-66
2023/06/08 04:18:34;;;;;;;3.60;3.40;;;20.40;67.00;;;;;;4994380;28;20117;-66
2023/06/08 04:20:59;;;;;;;4.82;4.43;;;20.40;67.00;;;;;;4991437;28;20031;-64
2023/06/08 04:23:27;;;;;;;3.80;3.50;;;20.40;67.20;;;;;;4999551;28;20064;-66
2023/06/08 04:25:52;;;;;;;4.93;4.50;;;20.40;67.40;;;;;;4994033;28;20026;-65
2023/06/08 04:28:18;;;;;;;4.95;4.18;;;20.40;67.20;;;;;;4994168;28;20463;-64
2023/06/08 04:30:44;;;;;;;4.68;4.15;;;20.40;67.00;;;;;;4994378;28;20520;-67
2023/06/08 04:33:09;;;;;;;4.13;3.75;;;20.40;67.20;;;;;;4994465;28;20031;-63
2023/06/08 04:35:35;;;;;;;4.00;3.70;;;20.40;67.40;;;;;;4996571;28;20026;-64
2023/06/08 04:38:01;;;;;;;3.97;3.67;;;20.40;67.10;;;;;;4994004;28;20105;-66
2023/06/08 04:40:29;;;;;;;4.63;4.22;;;20.40;67.20;;;;;;4993279;28;20108;-66
2023/06/08 04:42:54;;;;;;;4.00;3.70;;;20.40;67.00;;;;;;4994942;28;20026;-66
2023/06/08 04:45:20;;;;;;;4.47;4.07;;;20.50;67.30;;;;;;4994830;28;20030;-66
2023/06/08 04:47:46;;;;;;;4.93;4.35;;;20.40;68.00;;;;;;4996208;28;20065;-67
2023/06/08 04:50:11;;;;;;;5.20;4.70;;;20.40;67.10;;;;;;4996506;28;20069;-66
2023/06/08 04:52:45;;;;;;;4.95;3.90;;;20.40;67.20;;;;;;4997234;28;20117;-66
2023/06/08 04:55:14;;;;;;;4.75;3.55;;;20.40;67.10;;;;;;4991397;28;20030;-65
2023/06/08 04:57:41;;;;;;;3.88;3.58;;;20.40;67.10;;;;;;4995187;28;20037;-65
2023/06/08 05:00:09;;;;;;;3.92;3.63;;;20.40;67.00;;;;;;4996849;28;20022;-65
2023/06/08 05:02:38;;;;;;;4.72;4.32;;;20.40;67.20;;;;;;4991687;28;20074;-64
2023/06/08 05:05:05;;;;;;;3.92;3.63;;;20.40;67.20;;;;;;4995039;28;20108;-66
2023/06/08 05:07:30;;;;;;;4.78;4.38;;;20.40;67.10;;;;;;4997324;28;20034;-67
2023/06/08 05:09:59;;;;;;;4.65;4.25;;;20.40;67.20;;;;;;4990607;28;20035;-66
2023/06/08 05:12:24;;;;;;;4.15;3.75;;;20.40;67.20;;;;;;4994309;28;20025;-66
2023/06/08 05:14:50;;;;;;;4.15;3.85;;;20.40;67.30;;;;;;4999378;28;20599;-66
2023/06/08 05:17:15;;;;;;;5.00;4.20;;;20.40;67.20;;;;;;4994637;28;20034;-63
2023/06/08 05:19:41;;;;;;;4.22;3.75;;;20.40;67.30;;;;;;4996632;28;20042;-63
2023/06/08 05:22:06;;;;;;;4.10;3.70;;;20.40;67.20;;;;;;4991991;28;20519;-64
2023/06/08 05:24:32;;;;;;;3.80;3.50;;;20.40;67.20;;;;;;4996907;28;20034;-64
2023/06/08 05:26:57;;;;;;;4.22;3.92;;;20.40;67.10;;;;;;4996489;28;20061;-64
2023/06/08 05:29:23;;;;;;;4.40;4.00;;;20.40;67.20;;;;;;5001110;28;20034;-67
2023/06/08 05:31:49;;;;;;;4.15;3.72;;;20.40;67.20;;;;;;4997290;28;20030;-65
2023/06/08 05:34:15;;;;;;;5.35;4.28;;;20.40;67.60;;;;;;5000975;28;20026;-65
2023/06/08 05:36:40;;;;;;;3.92;3.53;;;20.40;67.20;;;;;;4998463;28;20474;-65
2023/06/08 05:39:06;;;;;;;5.35;3.97;;;20.40;67.20;;;;;;4998589;28;20398;-65
2023/06/08 05:41:31;;;;;;;5.05;4.55;;;20.40;67.20;;;;;;4997645;28;20042;-63
2023/06/08 05:43:57;;;;;;;8.60;5.97;;;20.50;67.10;;;;;;5002660;28;20512;-63
2023/06/08 05:46:22;;;;;;;7.32;5.60;;;20.40;67.20;;;;;;5001044;28;20121;-64
2023/06/08 05:48:48;;;;;;;6.57;5.88;;;20.40;67.10;;;;;;5000148;28;20087;-64
2023/06/08 05:51:13;;;;;;;6.90;6.13;;;20.40;67.00;;;;;;4997128;28;20037;-64
2023/06/08 05:53:39;;;;;;;6.72;6.05;;;20.40;67.20;;;;;;4999592;28;20041;-64
2023/06/08 05:56:04;;;;;;;8.52;5.95;;;20.40;67.20;;;;;;5000241;28;20080;-65
2023/06/08 05:58:30;;;;;;;6.30;5.70;;;20.40;67.20;;;;;;4997996;28;20113;-65
2023/06/08 06:00:58;;;;;;;6.63;6.03;;;20.40;67.30;;;;;;4998030;28;20022;-62
2023/06/08 06:03:24;;;;;;;8.25;6.10;;;20.40;67.30;;;;;;4999523;28;20320;-64
2023/06/08 06:05:51;;;;;;;8.85;6.10;;;20.40;67.20;;;;;;4995564;28;20045;-65
2023/06/08 06:08:16;;;;;;;7.22;6.50;;;20.40;67.20;;;;;;4996356;28;20030;-63
2023/06/08 06:10:42;;;;;;;8.00;7.07;;;20.40;67.40;;;;;;4995857;28;20575;-63
2023/06/08 06:13:07;;;;;;;9.27;7.70;;;20.40;67.30;;;;;;4999334;28;20046;-64
2023/06/08 06:15:33;;;;;;;8.10;7.05;;;20.40;67.40;;;;;;4998766;28;20053;-63
2023/06/08 06:17:59;;;;;;;8.90;7.30;;;20.40;67.50;;;;;;4997960;28;20402;-63
2023/06/08 06:20:27;;;;;;;6.93;6.32;;;20.40;67.30;;;;;;4997149;28;20057;-64
2023/06/08 06:22:52;;;;;;;7.03;5.75;;;20.40;67.30;;;;;;4996323;28;20026;-64
2023/06/08 06:25:18;;;;;;;7.65;5.80;;;20.40;67.40;;;;;;4990968;28;20034;-62
2023/06/08 06:27:44;;;;;;;7.57;6.88;;;20.40;67.60;;;;;;4992493;28;20080;-65
2023/06/08 06:30:10;;;;;;;6.95;6.25;;;20.40;67.20;;;;;;4994731;28;20485;-64
2023/06/08 06:32:35;;;;;;;8.40;5.90;;;20.40;67.20;;;;;;4996334;28;20136;-65
2023/06/08 06:35:01;;;;;;;10.00;7.20;;;20.40;67.40;;;;;;4993095;28;20390;-63
2023/06/08 06:37:34;;;;;;;6.55;5.63;;;20.40;67.40;;;;;;4999905;28;20370;-64
2023/06/08 06:40:00;;;;;;;6.95;6.32;;;20.40;67.80;;;;;;4994785;28;20030;-64
2023/06/08 06:42:25;;;;;;;6.65;5.72;;;20.40;67.60;;;;;;4999400;28;20036;-64
2023/06/08 06:44:50;;;;;;;8.38;6.32;;;20.40;67.70;;;;;;5000751;28;20033;-64
2023/06/08 06:47:16;;;;;;;7.63;5.80;;;20.40;67.70;;;;;;5000217;28;20033;-65
2023/06/08 06:49:41;;;;;;;8.02;7.22;;;20.40;67.70;;;;;;4999308;28;20405;-64
2023/06/08 06:52:08;;;;;;;7.43;6.72;;;20.40;67.70;;;;;;4997069;28;21738;-63
2023/06/08 06:54:34;;;;;;;8.07;5.47;;;20.50;67.70;;;;;;4998210;28;20099;-65
2023/06/08 06:56:59;;;;;;;7.72;6.32;;;20.40;67.70;;;;;;4994704;28;20470;-62
2023/06/08 06:59:26;;;;;;;9.63;6.30;;;20.40;67.70;;;;;;4995774;28;20034;-64
2023/06/08 07:01:51;;;;;;;7.53;6.65;;;20.50;67.90;;;;;;4994181;28;20117;-63
2023/06/08 07:04:19;;;;;;;7.18;6.47;;;20.50;67.90;;;;;;5000079;28;20465;-64
2023/06/08 07:06:47;;;;;;;7.95;7.03;;;20.50;67.80;;;;;;4990049;28;20478;-65
2023/06/08 07:09:13;;;;;;;9.00;6.50;;;20.50;67.80;;;;;;4993795;28;20545;-64
2023/06/08 07:11:39;;;;;;;8.30;6.68;;;20.50;68.00;;;;;;4996916;28;20037;-66
2023/06/08 07:14:04;;;;;;;9.45;6.75;;;20.40;67.80;;;;;;5000797;28;20137;-64
2023/06/08 07:16:30;;;;;;;7.38;6.68;;;20.50;68.00;;;;;;4998251;28;20417;-65
2023/06/08 07:18:55;;;;;;;9.52;6.78;;;20.50;67.80;;;;;;4998206;28;20493;-64
2023/06/08 07:21:21;;;;;;;8.25;6.47;;;20.50;67.80;;;;;;4998497;28;20105;-63
2023/06/08 07:23:49;;;;;;;8.85;7.18;;;20.50;67.90;;;;;;4995697;28;20041;-64
2023/06/08 07:26:14;;;;;;;8.32;6.97;;;20.50;68.00;;;;;;4996786;28;20030;-63
2023/06/08 07:28:40;;;;;;;8.60;7.07;;;20.40;67.80;;;;;;4992046;28;20507;-62
2023/06/08 07:31:05;;;;;;;7.30;6.55;;;20.40;67.70;;;;;;4996758;28;20060;-64
2023/06/08 07:33:31;;;;;;;8.52;6.55;;;20.50;67.90;;;;;;4995785;28;20034;-62
2023/06/08 07:35:56;;;;;;;8.93;7.47;;;20.40;67.70;;;;;;4996262;28;20509;-63
2023/06/08 07:38:22;;;;;;;7.65;6.38;;;20.50;67.90;;;;;;4997413;28;20045;-63
2023/06/08 07:40:47;;;;;;;8.13;6.60;;;20.40;67.80;;;;;;5002112;28;20046;-64
2023/06/08 07:43:13;;;;;;;7.90;7.10;;;20.50;67.70;;;;;;4998901;28;20026;-65
2023/06/08 07:45:38;;;;;;;9.68;7.20;;;20.50;67.80;;;;;;4999738;28;20267;-64
2023/06/08 07:48:04;;;;;;;7.30;6.05;;;20.50;67.90;;;;;;4994491;28;20050;-64
2023/06/08 07:50:30;;;;;;;7.38;6.35;;;20.50;67.70;;;;;;5000804;28;20501;-65
2023/06/08 07:52:55;;;;;;;7.65;6.63;;;20.50;67.70;;;;;;4997358;28;20038;-65
2023/06/08 07:55:21;;;;;;;7.25;6.28;;;20.50;67.70;;;;;;4994743;28;20080;-61
2023/06/08 07:57:48;;;;;;;7.82;6.65;;;20.50;67.60;;;;;;4988249;28;20743;-64
2023/06/08 08:00:14;;;;;;;8.75;6.50;;;20.40;67.60;;;;;;4988065;28;20126;-64
2023/06/08 08:02:41;;;;;;;8.85;6.68;;;20.50;67.70;;;;;;4992312;28;20083;-64
2023/06/08 08:05:08;;;;;;;8.85;6.88;;;20.50;67.60;;;;;;4992398;28;20038;-65
2023/06/08 08:07:34;;;;;;;7.97;6.10;;;20.50;67.60;;;;;;4998677;28;20676;-59
2023/06/08 08:09:59;;;;;;;9.60;6.55;;;20.50;67.60;;;;;;4998740;28;20048;-65
2023/06/08 08:12:25;;;;;;;9.82;6.32;;;20.50;67.60;;;;;;4995875;28;20037;-63
2023/06/08 08:14:50;;;;;;;9.40;6.35;;;20.50;67.50;;;;;;4999040;28;20034;-60
2023/06/08 08:17:16;;;;;;;8.70;6.13;;;20.50;67.60;;;;;;4996480;28;20480;-59
2023/06/08 08:19:41;;;;;;;7.75;5.85;;;20.50;67.60;;;;;;4998987;28;20088;-64
2023/06/08 08:22:07;;;;;;;7.80;6.15;;;20.50;67.50;;;;;;4996019;28;20030;-62
2023/06/08 08:24:33;;;;;;;8.30;6.43;;;20.50;67.70;;;;;;4988904;28;20038;-65
2023/06/08 08:26:58;;;;;;;7.07;5.95;;;20.50;67.50;;;;;;4990856;28;20038;-64
2023/06/08 08:29:24;;;;;;;7.00;6.20;;;20.50;67.50;;;;;;4990789;28;20053;-65
2023/06/08 08:31:50;;;;;;;7.57;6.22;;;20.50;67.50;;;;;;4992149;28;20045;-64
2023/06/08 08:34:15;;;;;;;7.35;6.53;;;20.50;67.40;;;;;;4991248;28;20615;-59
2023/06/08 08:36:41;;;;;;;8.45;5.85;;;20.50;67.50;;;;;;4993919;28;20113;-64
2023/06/08 08:39:09;;;;;;;7.05;6.03;;;20.50;67.40;;;;;;4999696;28;20037;-65
2023/06/08 08:41:40;;;;;;;8.95;5.88;;;20.50;67.50;;;;;;4997568;28;20034;-64
2023/06/08 08:44:08;;;;;;;7.47;6.05;;;20.50;67.50;;;;;;4995553;28;20061;-61
2023/06/08 08:46:34;;;;;;;6.38;5.78;;;20.50;67.40;;;;;;5000730;28;20481;-60
2023/06/08 08:49:06;;;;;;;6.40;5.80;;;20.50;67.40;;;;;;4999149;28;20054;-65
2023/06/08 08:51:32;;;;;;;7.78;5.78;;;20.50;67.50;;;;;;4997018;28;20037;-65
2023/06/08 08:54:00;;;;;;;8.63;6.30;;;20.50;68.00;;;;;;4993290;28;20037;-65
2023/06/08 08:56:26;;;;;;;6.88;6.00;;;20.50;67.40;;;;;;4990628;28;20023;-66
2023/06/08 08:58:52;;;;;;;7.35;6.03;;;20.50;67.40;;;;;;4993528;28;20041;-66
2023/06/08 09:01:18;;;;;;;7.82;6.07;;;20.50;67.40;;;;;;4998277;28;20031;-65
2023/06/08 09:03:47;;;;;;;7.28;6.22;;;20.50;67.40;;;;;;5002089;28;20033;-66
2023/06/08 09:06:13;;;;;;;7.32;5.88;;;20.50;67.50;;;;;;4996527;28;20484;-64
2023/06/08 09:08:38;;;;;;;7.45;6.18;;;20.50;67.50;;;;;;5003829;28;20026;-66
2023/06/08 09:11:06;;;;;;;7.38;5.90;;;20.50;67.40;;;;;;5000164;28;20048;-66
2023/06/08 09:13:33;;;;;;;7.53;6.00;;;20.50;67.50;;;;;;5000393;28;20293;-66
2023/06/08 09:16:09;;;;;;;9.15;6.82;;;20.50;67.50;;;;;;5002394;28;20033;-65
2023/06/08 09:18:35;;;;;;;8.30;6.28;;;20.50;67.60;;;;;;5001655;28;20029;-66
2023/06/08 09:21:19;;;;;;;9.45;7.43;;;20.50;67.70;;;;;;4999099;28;20023;-64
2023/06/08 09:23:45;;;;;;;9.85;7.07;;;20.50;67.50;;;;;;4976747;28;20036;-66
2023/06/08 09:26:13;;;;;;;8.02;6.95;;;20.50;68.50;;;;;;5007253;28;20033;-66
2023/06/08 09:28:38;;;;;;;9.32;7.82;;;20.50;67.80;;;;;;4993701;28;20022;-65
2023/06/08 09:31:09;;;;;;;8.27;6.35;;;20.50;67.70;;;;;;4992786;28;20030;-64
2023/06/08 09:33:34;;;;;;;8.55;6.45;;;20.50;67.80;;;;;;5001122;28;20034;-60
2023/06/08 09:36:01;;;;;;;9.00;7.05;;;20.50;67.60;;;;;;4997054;28;20762;-65
2023/06/08 09:38:28;;;;;;;7.68;6.38;;;20.50;67.70;;;;;;5001268;28;20038;-64
2023/06/08 09:41:22;;;;;;;7.32;6.60;;;20.50;67.80;;;;;;4998388;28;20033;-66
2023/06/08 09:43:49;;;;;;;6.97;6.07;;;20.50;67.70;;;;;;5000951;28;20709;-66
2023/06/08 09:46:41;;;;;;;6.75;6.05;;;20.50;67.80;;;;;;5001856;28;20038;-66
2023/06/08 09:49:07;;;;;;;8.25;5.85;;;20.50;67.80;;;;;;4998608;28;20038;-61
2023/06/08 09:51:37;;;;;;;7.68;6.15;;;20.50;67.70;;;;;;4996270;28;20041;-61
2023/06/08 09:54:04;;;;;;;7.05;6.22;;;20.50;67.90;;;;;;4972160;28;20363;-63
2023/06/08 09:56:30;;;;;;;8.52;6.50;;;20.50;67.80;;;;;;4974547;28;20040;-65
2023/06/08 09:58:58;;;;;;;7.70;6.30;;;20.50;67.90;;;;;;4993964;28;20042;-63
2023/06/08 10:01:35;;;;;;;7.95;6.30;;;20.50;68.30;;;;;;4996986;28;20107;-66
2023/06/08 10:04:11;;;;;;;8.38;6.75;;;20.60;68.10;;;;;;5000210;28;20030;-66
2023/06/08 10:06:39;;;;;;;7.93;6.35;;;20.60;68.20;;;;;;5000601;28;20022;-63
2023/06/08 10:09:07;;;;;;;8.52;6.43;;;20.60;68.20;;;;;;4999435;28;20163;-64
2023/06/08 10:11:34;;;;;;;7.07;6.38;;;20.60;68.30;;;;;;5003053;28;20037;-63
2023/06/08 10:13:59;;;;;;;8.48;6.35;;;20.60;68.30;;;;;;4999833;28;20144;-65
2023/06/08 10:16:25;;;;;;;8.30;6.10;;;20.60;68.20;;;;;;5001360;28;20031;-62
2023/06/08 10:18:52;;;;;;;6.78;6.07;;;20.60;68.20;;;;;;4999514;28;20038;-66
2023/06/08 10:21:17;;;;;;;8.48;6.30;;;20.60;68.10;;;;;;4997036;28;20030;-65
2023/06/08 10:23:44;;;;;;;7.70;6.07;;;20.60;68.10;;;;;;4995088;28;20057;-65
2023/06/08 10:26:10;;;;;;;8.25;6.97;;;20.60;68.10;;;;;;4990136;28;20041;-65
2023/06/08 10:28:36;;;;;;;8.85;6.28;;;20.60;68.40;;;;;;4999880;28;20026;-66
2023/06/08 10:31:31;;;;;;;7.05;6.35;;;20.60;68.30;;;;;;5000415;28;20037;-64
2023/06/08 10:33:58;;;;;;;10.10;6.40;;;20.60;68.40;;;;;;4995156;28;20609;-63
2023/06/08 10:36:34;;;;;;;8.27;6.32;;;20.60;68.30;;;;;;5004435;28;20033;-65
2023/06/08 10:39:00;;;;;;;6.95;6.22;;;20.60;68.50;;;;;;5000791;28;20037;-65
2023/06/08 10:41:40;;;;;;;9.07;6.95;;;20.60;68.40;;;;;;5005899;28;20033;-64
2023/06/08 10:44:22;;;;;;;7.43;6.32;;;20.60;68.50;;;;;;4992581;28;20030;-61
2023/06/08 10:46:59;;;;;;;7.93;5.80;;;20.60;68.70;;;;;;5001694;28;20037;-62
2023/06/08 10:49:48;;;;;;;6.82;6.13;;;20.60;68.50;;;;;;4999398;28;20034;-63
2023/06/08 10:52:19;;;;;;;7.05;6.35;;;20.70;68.80;;;;;;4989268;28;20516;-66
2023/06/08 10:55:15;;;;;;;6.50;5.80;;;20.70;68.60;;;;;;4995889;28;20053;-66
2023/06/08 10:57:45;;;;;;;8.27;5.95;;;20.60;68.70;;;;;;4995739;28;20084;-64
2023/06/08 11:00:35;;;;;;;6.72;5.75;;;20.70;68.80;;;;;;4993729;28;20113;-65
2023/06/08 11:03:06;;;;;;;6.68;5.68;;;20.70;68.60;;;;;;4992079;28;20050;-65
2023/06/08 11:05:33;;;;;;;6.88;5.95;;;20.70;68.90;;;;;;4999920;28;20125;-62
2023/06/08 11:08:00;;;;;;;7.25;6.35;;;20.60;68.90;;;;;;4997332;28;20027;-65
2023/06/08 11:10:26;;;;;;;6.22;5.63;;;20.70;68.50;;;;;;5001725;28;20512;-64
2023/06/08 11:12:52;;;;;;;6.32;5.82;;;20.60;68.70;;;;;;4999444;28;20133;-61
2023/06/08 11:15:18;;;;;;;7.30;6.60;;;20.70;68.80;;;;;;4998163;28;20072;-66
2023/06/08 11:17:55;;;;;;;7.38;6.35;;;20.70;68.70;;;;;;4995965;28;20069;-64
2023/06/08 11:20:27;;;;;;;6.22;5.63;;;20.70;68.70;;;;;;4993953;28;20394;-63
2023/06/08 11:22:53;;;;;;;7.60;6.18;;;20.70;68.50;;;;;;4993558;28;20038;-61
2023/06/08 11:25:19;;;;;;;6.68;5.97;;;20.70;68.70;;;;;;4996293;28;20038;-64
2023/06/08 11:27:45;;;;;;;6.70;6.10;;;20.70;68.60;;;;;;4996355;28;20034;-65
2023/06/08 11:30:17;;;;;;;5.97;5.43;;;20.70;68.60;;;;;;4993051;28;20490;-61
2023/06/08 11:32:50;;;;;;;6.88;5.60;;;20.70;68.60;;;;;;4991839;28;20330;-64
2023/06/08 11:35:21;;;;;;;6.60;6.00;;;20.70;68.50;;;;;;4998874;28;20036;-64
2023/06/08 11:37:52;;;;;;;6.75;6.03;;;20.60;68.50;;;;;;4998801;28;20038;-64
2023/06/08 11:40:18;;;;;;;8.27;6.13;;;20.70;68.40;;;;;;4998731;28;20025;-66
2023/06/08 11:42:44;;;;;;;6.70;6.00;;;20.70;68.50;;;;;;4998333;28;20034;-65
2023/06/08 11:45:11;;;;;;;6.95;5.32;;;20.70;68.50;;;;;;4998464;28;20053;-65
2023/06/08 11:47:42;;;;;;;6.32;5.68;;;20.70;68.40;;;;;;4995908;28;20572;-65
2023/06/08 11:50:09;;;;;;;6.35;5.75;;;20.70;68.20;;;;;;4997253;28;20034;-65
2023/06/08 11:52:38;;;;;;;6.18;5.45;;;20.70;68.30;;;;;;4993054;28;20104;-65
2023/06/08 11:55:11;;;;;;;6.63;6.03;;;20.70;68.30;;;;;;4989833;28;20038;-65
2023/06/08 11:57:41;;;;;;;7.30;5.45;;;20.70;68.40;;;;;;4992312;28;20050;-65
2023/06/08 12:00:09;;;;;;;6.00;5.38;;;20.70;68.30;;;;;;4997561;28;20037;-62
2023/06/08 12:02:36;;;;;;;6.05;5.45;;;20.70;68.20;;;;;;4993254;28;20265;-66
2023/06/08 12:05:02;;;;;;;7.25;6.30;;;20.70;68.40;;;;;;4999557;28;20060;-64
2023/06/08 12:07:28;;;;;;;7.60;5.93;;;20.70;68.30;;;;;;4999014;28;20041;-61
2023/06/08 12:09:54;;;;;;;6.47;5.57;;;20.70;68.30;;;;;;4998984;28;20026;-63
2023/06/08 12:12:19;;;;;;;5.93;5.43;;;20.70;68.20;;;;;;4995640;28;20042;-63
2023/06/08 12:14:46;;;;;;;5.63;5.13;;;20.70;68.20;;;;;;4996525;28;20026;-64
2023/06/08 12:17:15;;;;;;;6.53;5.82;;;20.70;68.30;;;;;;4994299;28;20034;-65
2023/06/08 12:19:45;;;;;;;7.57;6.22;;;20.70;68.20;;;;;;4995967;28;20116;-63
2023/06/08 12:22:11;;;;;;;6.38;5.78;;;20.70;68.20;;;;;;4986871;28;20031;-66
2023/06/08 12:24:37;;;;;;;6.93;5.35;;;20.70;68.80;;;;;;4996316;28;20121;-66
2023/06/08 12:27:06;;;;;;;6.20;5.60;;;20.70;68.20;;;;;;4992456;28;20030;-65
2023/06/08 12:29:32;;;;;;;6.28;5.20;;;20.70;68.30;;;;;;4993877;28;20104;-65
2023/06/08 12:31:57;;;;;;;7.90;6.07;;;20.70;68.20;;;;;;4997929;28;20038;-65
2023/06/08 12:34:23;;;;;;;6.65;5.97;;;20.70;68.20;;;;;;5001809;28;20101;-63
2023/06/08 12:36:48;;;;;;;7.47;5.70;;;20.70;68.20;;;;;;5004638;28;20489;-65
2023/06/08 12:39:14;;;;;;;6.22;5.63;;;20.70;68.20;;;;;;5003119;28;20098;-65
2023/06/08 12:41:39;;;;;;;7.13;5.88;;;20.70;68.10;;;;;;5002010;28;20718;-65
2023/06/08 12:44:05;;;;;;;7.00;5.45;;;20.70;68.20;;;;;;5000335;28;20054;-65
2023/06/08 12:46:30;;;;;;;6.75;5.57;;;20.70;68.20;;;;;;4998795;28;20030;-66
2023/06/08 12:48:58;;;;;;;5.82;5.25;;;20.70;68.30;;;;;;4996611;28;20030;-60
2023/06/08 12:51:23;;;;;;;6.35;5.28;;;20.70;68.00;;;;;;4994236;28;20073;-66